createdAt,value
2023-03-23T15:58:36.539Z,15.70
2023-03-23T16:01:08.559Z,15.80
2023-03-23T16:03:41.638Z,15.80
2023-03-23T16:06:23.513Z,15.90
2023-03-23T16:08:53.950Z,15.80
2023-03-23T16:11:24.232Z,15.80
2023-03-23T16:13:51.408Z,15.70
2023-03-23T16:16:24.933Z,15.60
2023-03-23T16:18:52.207Z,15.70
2023-03-23T16:21:19.586Z,15.60
2023-03-23T16:23:46.823Z,15.50
2023-03-23T16:26:15.434Z,15.30
2023-03-23T16:28:43.157Z,15.30
2023-03-23T16:31:10.646Z,15.20
2023-03-23T16:33:37.957Z,15.20
2023-03-23T16:36:05.533Z,15.10
2023-03-23T16:38:32.874Z,15.00
2023-03-23T16:41:16.477Z,15.00
2023-03-23T16:43:43.494Z,15.00
2023-03-23T16:46:12.295Z,15.10
2023-03-23T16:48:39.701Z,15.00
2023-03-23T16:51:08.242Z,15.10
2023-03-23T16:53:36.862Z,15.00
2023-03-23T16:56:04.982Z,15.00
2023-03-23T16:58:31.880Z,14.90
2023-03-23T17:00:58.990Z,14.90
2023-03-23T17:03:26.091Z,14.80
2023-03-23T17:05:54.676Z,14.80
2023-03-23T17:08:21.684Z,14.70
2023-03-23T17:10:49.162Z,14.70
2023-03-23T17:13:17.492Z,14.70
2023-03-23T17:15:46.892Z,14.70
2023-03-23T17:18:18.108Z,14.70
2023-03-23T17:20:45.582Z,14.70
2023-03-23T17:23:13.067Z,14.60
2023-03-23T17:25:40.665Z,14.60
2023-03-23T17:28:07.662Z,14.60
2023-03-23T17:30:35.491Z,14.50
2023-03-23T17:33:02.793Z,14.50
2023-03-23T17:35:30.052Z,14.50
2023-03-23T17:37:57.354Z,14.40
2023-03-23T17:40:24.537Z,14.40
2023-03-23T17:42:51.482Z,14.40
2023-03-23T17:45:18.433Z,14.30
2023-03-23T17:47:45.686Z,14.30
2023-03-23T17:50:13.870Z,14.30
2023-03-23T17:52:43.349Z,14.30
2023-03-23T17:55:11.190Z,14.20
2023-03-23T17:57:38.363Z,14.30
2023-03-23T18:00:09.178Z,14.20
2023-03-23T18:02:37.059Z,14.20
2023-03-23T18:05:06.349Z,14.20
2023-03-23T18:07:33.378Z,14.10
2023-03-23T18:10:01.255Z,14.20
2023-03-23T18:12:30.907Z,14.20
2023-03-23T18:15:00.189Z,14.20
2023-03-23T18:17:27.532Z,14.10
2023-03-23T18:19:55.441Z,14.10
2023-03-23T18:22:22.848Z,14.10
2023-03-23T18:24:50.581Z,14.10
2023-03-23T18:27:17.612Z,14.10
2023-03-23T18:29:44.664Z,14.10
2023-03-23T18:32:11.677Z,14.10
2023-03-23T18:34:41.754Z,14.10
2023-03-23T18:37:09.239Z,14.10
2023-03-23T18:39:37.176Z,14.00
2023-03-23T18:42:05.537Z,14.00
2023-03-23T18:44:33.583Z,14.10
2023-03-23T18:47:00.635Z,14.10
2023-03-23T18:49:29.065Z,14.00
2023-03-23T18:51:56.441Z,14.00
2023-03-23T18:54:23.514Z,14.00
2023-03-23T18:56:50.530Z,14.00
2023-03-23T18:59:17.731Z,14.00
2023-03-23T19:01:44.916Z,13.90
2023-03-23T19:04:13.711Z,13.90
2023-03-23T19:06:43.514Z,13.90
2023-03-23T19:09:10.530Z,13.80
2023-03-23T19:11:37.812Z,13.80
2023-03-23T19:14:05.282Z,13.80
2023-03-23T19:16:35.794Z,13.80
2023-03-23T19:19:04.886Z,13.80
2023-03-23T19:21:32.605Z,13.80
2023-03-23T19:24:02.458Z,13.70
2023-03-23T19:26:36.687Z,13.70
2023-03-23T19:29:26.287Z,13.70
2023-03-23T19:31:55.888Z,13.70
2023-03-23T19:34:24.543Z,13.70
2023-03-23T19:36:56.320Z,13.60
2023-03-23T19:39:32.190Z,13.60
2023-03-23T19:42:01.536Z,13.60
2023-03-23T19:44:31.408Z,13.60
2023-03-23T19:46:58.842Z,13.60
2023-03-23T19:49:27.247Z,13.50
2023-03-23T19:52:08.079Z,13.40
2023-03-23T19:54:38.666Z,13.30
2023-03-23T19:57:08.071Z,13.30
2023-03-23T19:59:35.529Z,13.30
2023-03-23T20:02:03.721Z,13.20
2023-03-23T20:04:32.383Z,13.20
2023-03-23T20:07:00.611Z,13.20
2023-03-23T20:09:28.510Z,13.10
2023-03-23T20:11:55.708Z,13.10
2023-03-23T20:14:22.958Z,13.10
2023-03-23T20:16:50.038Z,13.10
2023-03-23T20:19:18.372Z,13.10
2023-03-23T20:21:45.965Z,13.00
2023-03-23T20:24:13.278Z,13.00
2023-03-23T20:26:43.223Z,13.00
2023-03-23T20:29:11.304Z,13.00
2023-03-23T20:31:40.825Z,13.00
2023-03-23T20:34:11.060Z,13.00
2023-03-23T20:36:42.127Z,13.00
2023-03-23T20:39:21.489Z,13.00
2023-03-23T20:41:54.891Z,13.00
2023-03-23T20:44:27.810Z,13.00
2023-03-23T20:46:54.962Z,12.90
2023-03-23T20:49:25.081Z,13.00
2023-03-23T20:51:52.426Z,12.90
2023-03-23T20:54:21.912Z,13.00
2023-03-23T20:56:50.805Z,12.90
2023-03-23T20:59:20.319Z,12.90
2023-03-23T21:01:50.941Z,12.90
2023-03-23T21:04:23.085Z,12.90
2023-03-23T21:06:52.077Z,12.90
2023-03-23T21:09:19.948Z,12.90
2023-03-23T21:11:49.169Z,12.90
2023-03-23T21:14:17.144Z,12.90
2023-03-23T21:16:44.695Z,13.00
2023-03-23T21:19:13.321Z,13.00
2023-03-23T21:21:56.245Z,13.00
2023-03-23T21:24:29.572Z,13.00
2023-03-23T21:26:58.911Z,13.00
2023-03-23T21:29:27.511Z,12.90
2023-03-23T21:32:07.799Z,12.90
2023-03-23T21:34:37.190Z,13.00
2023-03-23T21:37:04.888Z,13.00
2023-03-23T21:39:32.270Z,13.00
2023-03-23T21:41:59.750Z,13.00
2023-03-23T21:44:26.973Z,12.90
2023-03-23T21:46:54.625Z,13.00
2023-03-23T21:49:22.100Z,12.90
2023-03-23T21:51:50.222Z,12.80
2023-03-23T21:54:17.522Z,12.80
2023-03-23T21:56:44.625Z,12.80
2023-03-23T21:59:12.006Z,12.70
2023-03-23T22:01:40.521Z,12.70
2023-03-23T22:04:08.199Z,12.60
2023-03-23T22:06:35.850Z,12.60
2023-03-23T22:09:05.735Z,12.60
2023-03-23T22:11:33.285Z,12.50
2023-03-23T22:14:00.746Z,12.50
2023-03-23T22:16:28.349Z,12.50
2023-03-23T22:19:00.172Z,12.40
2023-03-23T22:21:29.144Z,12.40
2023-03-23T22:23:59.136Z,12.40
2023-03-23T22:26:27.712Z,12.30
2023-03-23T22:28:55.666Z,12.40
2023-03-23T22:31:26.656Z,12.30
2023-03-23T22:33:55.527Z,12.30
2023-03-23T22:36:24.506Z,12.20
2023-03-23T22:38:52.023Z,12.20
2023-03-23T22:41:25.484Z,12.20
2023-03-23T22:43:53.175Z,12.20
2023-03-23T22:46:21.229Z,12.10
2023-03-23T22:48:49.659Z,12.10
2023-03-23T22:51:18.478Z,12.10
2023-03-23T22:53:47.649Z,12.10
2023-03-23T22:56:14.971Z,12.10
2023-03-23T22:58:42.831Z,12.10
2023-03-23T23:01:14.873Z,12.10
2023-03-23T23:03:42.130Z,12.10
2023-03-23T23:06:11.606Z,12.10
2023-03-23T23:08:39.959Z,12.20
2023-03-23T23:11:11.122Z,12.20
2023-03-23T23:13:41.349Z,12.20
2023-03-23T23:16:10.560Z,12.20
2023-03-23T23:18:38.614Z,12.20
2023-03-23T23:21:08.866Z,12.20
2023-03-23T23:23:36.545Z,12.20
2023-03-23T23:26:04.023Z,12.20
2023-03-23T23:28:31.380Z,12.20
2023-03-23T23:30:58.823Z,12.20
2023-03-23T23:33:26.236Z,12.20
2023-03-23T23:35:54.442Z,12.20
2023-03-23T23:38:21.778Z,12.20
2023-03-23T23:40:48.767Z,12.20
2023-03-23T23:43:16.973Z,12.20
2023-03-23T23:45:44.353Z,12.20
2023-03-23T23:48:12.807Z,12.20
2023-03-23T23:50:39.833Z,12.20
2023-03-23T23:53:09.930Z,12.20
2023-03-23T23:55:38.517Z,12.20
2023-03-23T23:58:05.667Z,12.20
